Time;durP1;ratioP1;P1;durP2;ratioP2;P2;SDS_P1;SDS_P2;PMS_P1;PMS_P2;Temp;Humidity;BMP_temperature;BMP_pressure;BME280_temperature;BME280_humidity;BME280_pressure;Samples;Min_cycle;Max_cycle;Signal;HPM_P1;HPM_P2
2021/12/13 00:01:14;;;;;;;18.17;11.30;;;;;;;1.46;91.77;101623.72;5034073;28;20047;-81
2021/12/13 00:03:53;;;;;;;22.98;12.02;;;;;;;1.49;91.41;101617.97;5032868;28;20053;-80
2021/12/13 00:06:28;;;;;;;22.23;12.75;;;;;;;1.47;91.74;101620.03;5034169;28;20045;-81
2021/12/13 00:09:01;;;;;;;23.58;12.27;;;;;;;1.51;91.51;101615.06;5034033;28;20060;-80
2021/12/13 00:11:33;;;;;;;19.83;12.32;;;;;;;1.58;91.45;101622.19;5033065;28;20056;-80
2021/12/13 00:14:16;;;;;;;21.88;12.45;;;;;;;1.58;91.59;101608.72;5032610;28;20041;-80
2021/12/13 00:17:00;;;;;;;22.73;13.07;;;;;;;1.60;90.99;101609.34;5033806;28;20037;-80
2021/12/13 00:19:59;;;;;;;17.92;11.60;;;;;;;1.57;91.84;101604.31;5033720;28;20476;-80
2021/12/13 00:22:35;;;;;;;24.90;12.70;;;;;;;1.55;91.60;101603.69;5032383;28;20057;-80
2021/12/13 00:25:09;;;;;;;23.05;11.77;;;;;;;1.60;92.41;101601.25;5033776;28;20487;-81
2021/12/13 00:27:46;;;;;;;21.60;12.13;;;;;;;1.61;92.31;101599.38;5033470;28;20071;-80
2021/12/13 00:30:28;;;;;;;24.15;12.63;;;;;;;1.67;92.21;101608.56;5033729;28;20052;-80
2021/12/13 00:33:14;;;;;;;20.83;12.48;;;;;;;1.71;93.33;101605.28;5033437;28;20071;-80
2021/12/13 00:35:59;;;;;;;27.20;12.25;;;;;;;1.69;92.50;101615.44;5033602;28;20049;-80
2021/12/13 00:38:30;;;;;;;21.45;10.55;;;;;;;1.65;92.49;101613.34;5033336;28;20046;-80
2021/12/13 00:41:05;;;;;;;20.17;11.38;;;;;;;1.71;92.03;101623.34;5033376;28;20061;-81
2021/12/13 00:43:36;;;;;;;18.38;11.32;;;;;;;1.69;90.96;101623.53;5033302;28;20116;-80
2021/12/13 00:46:09;;;;;;;18.55;12.02;;;;;;;1.68;90.62;101621.03;5033048;28;20067;-81
2021/12/13 00:48:42;;;;;;;21.48;12.10;;;;;;;1.59;90.88;101613.06;5030895;28;20045;-81
2021/12/13 00:51:16;;;;;;;20.00;12.18;;;;;;;1.58;90.52;101616.81;5021336;28;20049;-80
2021/12/13 00:53:46;;;;;;;;;;;;;;;1.55;90.51;101619.03;5033596;28;20057;-80
2021/12/13 00:56:42;;;;;;;21.52;11.50;;;;;;;1.51;91.00;101618.59;5033155;28;20398;-80
2021/12/13 00:59:19;;;;;;;17.13;10.63;;;;;;;1.58;90.82;101619.50;5032914;28;20523;-81
2021/12/13 01:01:59;;;;;;;17.75;10.40;;;;;;;1.57;91.60;101620.50;5033095;28;20061;-80
2021/12/13 01:05:00;;;;;;;24.42;11.60;;;;;;;1.57;91.55;101615.09;5032826;28;20373;-80
2021/12/13 01:07:56;;;;;;;21.35;11.55;;;;;;;1.58;91.68;101619.50;5030691;28;20042;-81
2021/12/13 01:10:40;;;;;;;19.98;11.45;;;;;;;1.63;91.59;101610.81;5025258;28;20054;-81
2021/12/13 01:13:27;;;;;;;19.77;11.68;;;;;;;1.70;90.90;101608.16;5033030;28;20496;-81
2021/12/13 01:16:11;;;;;;;21.95;12.48;;;;;;;1.87;90.09;101603.31;5032670;28;20041;-81
2021/12/13 01:19:25;;;;;;;18.65;12.13;;;;;;;1.82;90.02;101595.81;5032714;28;20049;-80
2021/12/13 01:22:02;;;;;;;19.75;10.95;;;;;;;1.87;90.08;101595.22;5021252;28;20040;-80
2021/12/13 01:27:33;;;;;;;15.50;10.82;;;;;;;2.00;89.33;101591.75;5032652;28;20064;-80
2021/12/13 01:30:06;;;;;;;16.02;11.18;;;;;;;2.14;88.53;101590.00;5032343;28;20037;-81
2021/12/13 01:32:37;;;;;;;18.45;11.80;;;;;;;2.08;88.84;101594.34;5032558;28;20519;-80
2021/12/13 01:35:09;;;;;;;21.95;11.55;;;;;;;2.04;89.79;101595.75;5032458;28;20041;-80
2021/12/13 01:37:37;;;;;;;16.95;11.05;;;;;;;2.11;89.13;101601.22;5064274;28;20049;-80
2021/12/13 01:40:12;;;;;;;18.33;11.27;;;;;;;2.10;90.02;101586.84;5032137;28;20053;-80
2021/12/13 01:42:41;;;;;;;17.25;10.52;;;;;;;2.02;90.45;101589.72;5020484;28;20045;-80
2021/12/13 01:45:14;;;;;;;15.75;10.43;;;;;;;1.96;90.53;101604.00;5030754;28;20042;-80
2021/12/13 01:47:46;;;;;;;20.52;12.50;;;;;;;1.97;90.04;101602.97;5032715;28;20037;-80
2021/12/13 01:50:22;;;;;;;21.25;11.43;;;;;;;2.07;90.00;101614.28;5018034;28;20057;-81
2021/12/13 01:52:53;;;;;;;26.75;12.27;;;;;;;1.90;90.45;101612.91;5032255;28;20041;-81
2021/12/13 01:55:37;;;;;;;22.40;12.55;;;;;;;1.80;91.05;101618.63;5032065;28;20041;-80
2021/12/13 02:01:10;;;;;;;20.00;11.95;;;;;;;1.64;92.57;101620.56;5031992;28;20053;-80
2021/12/13 02:04:04;;;;;;;18.42;11.35;;;;;;;1.46;93.33;101608.38;5031052;28;20041;-80
2021/12/13 02:06:35;;;;;;;18.25;11.80;;;;;;;1.50;93.75;101608.00;5032062;28;20041;-81
2021/12/13 02:09:11;;;;;;;17.98;11.90;;;;;;;1.38;94.47;101611.22;5031930;28;20049;-80
2021/12/13 02:11:41;;;;;;;21.10;12.77;;;;;;;1.42;94.64;101617.06;5031932;28;20049;-80
2021/12/13 02:14:16;;;;;;;20.48;12.73;;;;;;;1.41;95.43;101615.41;5032203;28;20080;-80
2021/12/13 02:17:13;;;;;;;21.83;12.25;;;;;;;1.39;95.02;101614.75;5031964;28;20042;-80
2021/12/13 02:19:43;;;;;;;17.83;11.52;;;;;;;1.38;96.10;101622.00;5031569;28;20054;-81
2021/12/13 02:22:22;;;;;;;22.90;13.52;;;;;;;1.30;96.09;101609.47;5031943;28;20053;-80
2021/12/13 02:24:52;;;;;;;19.77;12.88;;;;;;;1.25;96.93;101611.06;5031705;28;20041;-80
2021/12/13 02:27:24;;;;;;;20.02;12.07;;;;;;;1.24;97.38;101609.41;5031878;28;20046;-80
2021/12/13 02:29:57;;;;;;;20.48;12.40;;;;;;;1.20;97.80;101614.34;5031620;28;20042;-80
2021/12/13 02:32:28;;;;;;;23.83;13.73;;;;;;;1.17;98.43;101603.97;5063271;28;20049;-80
2021/12/13 02:34:58;;;;;;;22.20;13.23;;;;;;;1.24;98.27;101617.50;5032382;28;20064;-80
2021/12/13 02:37:27;;;;;;;23.30;14.23;;;;;;;1.25;98.71;101611.91;5035968;28;20049;-80
2021/12/13 02:39:59;;;;;;;23.48;14.65;;;;;;;1.36;98.03;101612.44;5035507;28;20396;-80
2021/12/13 02:42:29;;;;;;;22.52;14.38;;;;;;;1.31;97.76;101611.16;5035821;28;20065;-80
2021/12/13 02:45:22;;;;;;;23.08;14.20;;;;;;;1.30;98.11;101622.13;5035369;28;20826;-80
2021/12/13 02:48:12;;;;;;;26.35;14.43;;;;;;;1.49;97.37;101634.16;5035727;28;20046;-80
2021/12/13 02:50:50;;;;;;;27.73;13.35;;;;;;;1.71;95.14;101642.25;5021451;28;20412;-80
2021/12/13 02:53:23;;;;;;;20.77;13.65;;;;;;;1.66;94.74;101639.28;5035404;28;20048;-80
2021/12/13 02:55:52;;;;;;;23.65;13.10;;;;;;;1.44;96.02;101647.38;5035261;28;20041;-80
2021/12/13 02:58:23;;;;;;;24.60;12.95;;;;;;;1.17;97.46;101629.03;5035356;28;20396;-80
2021/12/13 03:01:22;;;;;;;23.52;13.93;;;;;;;1.14;98.17;101648.31;5035073;28;20042;-80
2021/12/13 03:03:56;;;;;;;24.10;14.60;;;;;;;1.06;98.51;101643.03;5034732;28;20050;-80
2021/12/13 03:06:30;;;;;;;22.05;13.32;;;;;;;1.07;98.79;101642.84;5021530;28;20050;-80
2021/12/13 03:09:06;;;;;;;27.05;14.65;;;;;;;1.07;98.78;101639.31;5035180;28;20388;-80
2021/12/13 03:11:35;;;;;;;22.50;13.38;;;;;;;1.13;98.52;101643.13;5033845;28;20038;-80
2021/12/13 03:14:09;;;;;;;27.45;14.18;;;;;;;1.24;97.91;101650.69;5034926;28;20128;-80
2021/12/13 03:16:46;;;;;;;22.33;12.55;;;;;;;1.38;97.13;101640.91;5035029;28;20056;-80
2021/12/13 03:19:30;;;;;;;22.27;12.93;;;;;;;1.29;97.04;101642.03;5033638;28;20037;-80
2021/12/13 03:22:35;;;;;;;24.90;12.90;;;;;;;1.26;97.86;101643.25;5035055;28;20041;-80
2021/12/13 03:25:15;;;;;;;23.50;13.80;;;;;;;1.23;98.36;101651.72;5035051;28;20484;-80
2021/12/13 03:27:50;;;;;;;26.38;14.45;;;;;;;1.18;99.11;101644.19;5034752;28;20056;-80
2021/12/13 03:30:25;;;;;;;21.70;13.23;;;;;;;1.06;99.50;101649.25;5034746;28;20062;-80
2021/12/13 03:33:09;;;;;;;20.40;13.10;;;;;;;1.01;100.00;101648.16;5034554;28;20045;-80
2021/12/13 03:35:50;;;;;;;23.80;13.02;;;;;;;1.00;100.00;101650.03;5034847;28;20057;-80
2021/12/13 03:38:26;;;;;;;23.73;13.32;;;;;;;0.88;100.00;101654.22;5034603;28;20053;-80
2021/12/13 03:40:59;;;;;;;24.67;12.73;;;;;;;0.82;100.00;101649.59;5034562;28;20495;-80
2021/12/13 03:43:41;;;;;;;22.30;13.30;;;;;;;0.79;100.00;101635.47;5034417;28;20056;-80
2021/12/13 03:46:13;;;;;;;24.20;13.80;;;;;;;0.84;100.00;101644.84;5021445;28;20054;-80
2021/12/13 03:48:44;;;;;;;30.75;14.23;;;;;;;0.88;100.00;101646.16;5030243;28;20500;-80
2021/12/13 03:51:16;;;;;;;20.83;12.93;;;;;;;0.90;100.00;101646.78;5022763;28;20041;-80
2021/12/13 03:53:49;;;;;;;23.88;12.88;;;;;;;0.86;100.00;101648.19;5034170;28;20053;-80
2021/12/13 03:56:26;;;;;;;20.92;12.88;;;;;;;0.86;99.94;101649.03;5034182;28;20064;-80
2021/12/13 03:59:00;;;;;;;22.88;13.07;;;;;;;0.80;99.48;101647.91;5034143;28;20510;-80
2021/12/13 04:01:36;;;;;;;23.85;12.15;;;;;;;0.74;99.86;101656.72;5034233;28;20373;-80
2021/12/13 04:04:08;;;;;;;21.65;13.75;;;;;;;0.76;99.84;101646.63;5034105;28;20056;-80
2021/12/13 04:06:52;;;;;;;20.85;12.60;;;;;;;0.67;100.00;101645.03;5032911;28;20042;-80
2021/12/13 04:09:23;;;;;;;22.17;13.13;;;;;;;0.56;100.00;101648.22;5033971;28;20033;-80
2021/12/13 04:11:54;;;;;;;20.75;12.40;;;;;;;0.51;100.00;101655.00;5034349;28;20068;-80
2021/12/13 04:14:30;;;;;;;22.55;12.90;;;;;;;0.51;100.00;101648.78;5033782;28;20050;-80
2021/12/13 04:17:23;;;;;;;23.67;14.23;;;;;;;0.50;100.00;101647.94;5033955;28;20049;-80
2021/12/13 04:20:03;;;;;;;21.15;11.98;;;;;;;0.46;100.00;101649.34;5033776;28;20080;-80
2021/12/13 04:22:35;;;;;;;24.52;12.77;;;;;;;0.53;100.00;101646.72;5033900;28;20056;-80
2021/12/13 04:25:11;;;;;;;22.83;13.82;;;;;;;0.50;100.00;101645.22;5065564;28;20052;-80
2021/12/13 04:27:48;;;;;;;23.00;12.32;;;;;;;0.57;100.00;101655.25;5033589;28;20058;-80
2021/12/13 04:30:24;;;;;;;23.70;13.00;;;;;;;0.47;100.00;101653.69;5033656;28;20591;-80
2021/12/13 04:32:57;;;;;;;20.42;12.70;;;;;;;0.40;100.00;101637.44;5033413;28;20378;-80
2021/12/13 04:35:28;;;;;;;24.35;13.63;;;;;;;0.64;100.00;101642.75;5065200;28;20041;-80
2021/12/13 04:37:58;;;;;;;21.50;13.82;;;;;;;0.82;100.00;101644.22;5033427;28;20053;-80
2021/12/13 04:40:32;;;;;;;21.25;13.20;;;;;;;0.79;100.00;101657.00;5033569;28;20045;-80
2021/12/13 04:43:07;;;;;;;24.60;13.60;;;;;;;0.73;100.00;101660.47;5033340;28;20050;-80
2021/12/13 04:45:38;;;;;;;22.48;12.85;;;;;;;0.88;100.00;101654.22;5032236;28;20500;-80
2021/12/13 04:48:18;;;;;;;22.20;13.75;;;;;;;0.97;100.00;101668.44;5033359;28;20064;-80
2021/12/13 04:50:58;;;;;;;21.77;13.38;;;;;;;0.93;99.33;101670.69;5019279;28;20049;-80
2021/12/13 04:53:33;;;;;;;19.60;11.68;;;;;;;0.76;100.00;101673.56;5033154;28;20060;-80
2021/12/13 04:56:08;;;;;;;24.27;13.60;;;;;;;0.81;99.75;101675.69;5033270;28;20061;-80
2021/12/13 04:58:38;;;;;;;22.50;13.13;;;;;;;0.56;100.00;101661.69;5033158;28;20045;-80
2021/12/13 05:01:08;;;;;;;19.05;12.77;;;;;;;0.49;100.00;101667.00;5032967;28;20056;-80
2021/12/13 05:03:41;;;;;;;23.67;12.85;;;;;;;0.40;100.00;101663.56;5033316;28;20365;-80
2021/12/13 05:06:14;;;;;;;20.13;12.30;;;;;;;0.39;100.00;101668.09;5018969;28;20488;-80
2021/12/13 05:08:48;;;;;;;23.23;12.23;;;;;;;0.38;100.00;101677.19;5033124;28;20053;-80
2021/12/13 05:11:16;;;;;;;23.70;12.02;;;;;;;0.32;100.00;101664.47;5032872;28;20042;-80
2021/12/13 05:13:52;;;;;;;25.98;13.55;;;;;;;0.34;100.00;101666.97;5032742;28;20045;-80
2021/12/13 05:16:44;;;;;;;22.60;13.15;;;;;;;0.39;100.00;101678.03;5032683;28;20492;-81
2021/12/13 05:19:16;;;;;;;26.33;12.52;;;;;;;0.39;100.00;101661.88;5064330;28;20048;-80
2021/12/13 05:21:51;;;;;;;19.48;11.98;;;;;;;0.39;100.00;101653.81;5032713;28;20041;-81
2021/12/13 05:24:23;;;;;;;20.58;12.32;;;;;;;0.58;100.00;101660.47;5032591;28;20480;-81
2021/12/13 05:26:56;;;;;;;25.30;13.18;;;;;;;0.61;100.00;101661.97;5032638;28;20373;-81
2021/12/13 05:29:27;;;;;;;20.05;13.63;;;;;;;0.63;100.00;101651.84;5031349;28;20511;-81
2021/12/13 05:32:18;;;;;;;21.92;12.10;;;;;;;0.59;100.00;101654.06;5033177;28;20049;-80
2021/12/13 05:34:46;;;;;;;24.77;13.40;;;;;;;0.55;100.00;101649.22;5032588;28;20052;-80
2021/12/13 05:37:15;;;;;;;25.55;13.20;;;;;;;0.58;100.00;101647.00;5032456;28;20046;-81
2021/12/13 05:40:04;;;;;;;24.25;13.40;;;;;;;0.58;100.00;101660.47;5032255;28;20053;-81
2021/12/13 05:42:42;;;;;;;28.83;12.60;;;;;;;0.57;100.00;101663.34;5031224;28;20052;-81
2021/12/13 05:45:28;;;;;;;21.67;12.73;;;;;;;0.70;100.00;101663.53;5030584;28;20042;-81
2021/12/13 05:48:01;;;;;;;26.05;13.32;;;;;;;0.72;100.00;101658.78;5030162;28;20049;-81
2021/12/13 05:50:35;;;;;;;23.23;14.10;;;;;;;0.74;100.00;101654.03;5026850;28;20050;-81
2021/12/13 05:53:10;;;;;;;25.63;12.98;;;;;;;0.71;100.00;101664.38;5024729;28;20049;-81
2021/12/13 05:56:14;;;;;;;20.42;12.30;;;;;;;0.65;100.00;101671.34;5031017;28;20053;-79
2021/12/13 05:58:47;;;;;;;25.90;12.80;;;;;;;0.62;100.00;101677.09;5024166;28;20052;-79
2021/12/13 06:01:22;;;;;;;22.85;13.45;;;;;;;0.67;100.00;101682.75;5023838;28;20053;-79
2021/12/13 06:04:12;;;;;;;20.10;12.98;;;;;;;0.77;100.00;101674.41;5022839;28;20052;-79
2021/12/13 06:06:51;;;;;;;18.40;12.43;;;;;;;0.67;100.00;101666.59;5020234;28;20042;-76
2021/12/13 06:09:41;;;;;;;20.23;11.77;;;;;;;0.75;100.00;101684.53;5026460;28;20419;-78
2021/12/13 06:12:13;;;;;;;24.45;13.15;;;;;;;0.71;100.00;101678.69;5025227;28;20037;-78
2021/12/13 06:14:41;;;;;;;26.95;12.45;;;;;;;0.72;100.00;101672.28;5026971;28;20049;-79
2021/12/13 06:17:20;;;;;;;20.73;12.40;;;;;;;0.77;100.00;101677.94;5027509;28;20048;-78
2021/12/13 06:19:57;;;;;;;18.77;12.38;;;;;;;0.88;100.00;101678.50;5021527;28;20057;-81
2021/12/13 06:22:28;;;;;;;22.02;12.88;;;;;;;1.00;100.00;101674.28;5026815;28;20049;-78
2021/12/13 06:25:06;;;;;;;20.48;11.90;;;;;;;0.98;100.00;101675.50;5022077;28;20050;-79
2021/12/13 06:27:51;;;;;;;21.20;12.48;;;;;;;1.03;100.00;101665.81;5016988;28;20227;-78
2021/12/13 06:30:35;;;;;;;20.05;12.30;;;;;;;1.29;99.34;101669.84;5027017;28;20084;-79
2021/12/13 06:33:10;;;;;;;;;;;;;;;1.24;98.92;101664.19;5021133;28;20564;-78
2021/12/13 06:35:44;;;;;;;20.50;11.77;;;;;;;1.20;99.59;101668.28;5021120;28;19921;-78
2021/12/13 06:38:43;;;;;;;20.80;12.68;;;;;;;1.41;97.71;101663.97;5030400;28;20057;-79
2021/12/13 06:41:32;;;;;;;27.13;12.38;;;;;;;1.42;96.69;101676.41;5023143;28;20851;-78
2021/12/13 06:44:09;;;;;;;22.45;12.23;;;;;;;1.40;97.02;101670.34;5018480;28;20067;-78
2021/12/13 06:46:44;;;;;;;19.23;10.80;;;;;;;1.78;95.02;101680.06;5020961;28;20041;-78
2021/12/13 06:49:17;;;;;;;19.17;10.90;;;;;;;1.68;95.25;101681.25;5014605;28;20050;-78
2021/12/13 06:51:57;;;;;;;22.08;11.60;;;;;;;1.56;95.47;101678.19;5024218;28;20049;-78
2021/12/13 06:54:24;;;;;;;18.00;11.63;;;;;;;1.60;95.00;101676.81;5031225;28;20052;-78
2021/12/13 06:57:01;;;;;;;18.77;11.15;;;;;;;1.52;94.25;101666.13;5031238;28;20052;-78
2021/12/13 06:59:31;;;;;;;18.42;10.35;;;;;;;1.50;94.99;101675.47;5031294;28;20484;-78
2021/12/13 07:02:11;;;;;;;16.75;10.30;;;;;;;1.49;94.56;101682.69;5031269;28;20057;-78
2021/12/13 07:05:15;;;;;;;19.52;10.10;;;;;;;1.54;94.53;101684.81;5031277;28;20057;-79
2021/12/13 07:08:03;;;;;;;18.45;10.27;;;;;;;1.59;94.15;101687.78;5028950;28;20056;-79
2021/12/13 07:10:44;;;;;;;21.42;10.32;;;;;;;1.62;94.41;101682.00;5025524;28;20046;-79
2021/12/13 07:13:33;;;;;;;16.35;9.50;;;;;;;1.72;93.62;101687.91;5031182;28;20049;-79
2021/12/13 07:16:15;;;;;;;18.67;9.95;;;;;;;1.80;92.62;101689.63;5030988;28;20042;-79
2021/12/13 07:19:11;;;;;;;20.83;9.95;;;;;;;1.91;91.70;101682.06;5031057;28;20464;-78
2021/12/13 07:21:48;;;;;;;16.33;10.13;;;;;;;2.01;90.75;101686.09;5031148;28;20042;-79
2021/12/13 07:24:25;;;;;;;19.15;10.60;;;;;;;2.08;90.29;101686.16;5033378;28;20042;-79
2021/12/13 07:26:57;;;;;;;18.88;10.38;;;;;;;2.19;89.59;101695.56;5034569;28;20049;-79
2021/12/13 07:29:30;;;;;;;16.38;10.68;;;;;;;2.41;89.66;101699.03;5034403;28;20045;-79
2021/12/13 07:32:19;;;;;;;16.70;9.75;;;;;;;2.45;89.48;101694.09;5034517;28;20057;-79
2021/12/13 07:35:04;;;;;;;18.08;11.27;;;;;;;2.53;89.20;101693.09;5034300;28;20041;-80
2021/12/13 07:37:35;;;;;;;16.85;10.88;;;;;;;2.54;88.12;101701.00;5034394;28;20045;-80
2021/12/13 07:40:20;;;;;;;17.77;10.50;;;;;;;2.66;89.51;101701.31;5034122;28;20052;-79
2021/12/13 07:43:12;;;;;;;17.40;10.80;;;;;;;2.71;88.70;101714.22;5034331;28;20056;-79
2021/12/13 07:46:01;;;;;;;16.98;10.98;;;;;;;2.79;88.49;101724.84;5034536;28;20049;-80
2021/12/13 07:48:54;;;;;;;20.45;11.23;;;;;;;2.98;87.82;101721.63;5034126;28;20042;-79
2021/12/13 07:51:27;;;;;;;25.77;12.53;;;;;;;3.24;86.71;101726.31;5033091;28;20046;-80
2021/12/13 07:53:58;;;;;;;17.60;10.90;;;;;;;3.29;86.68;101721.13;5033799;28;20296;-80
2021/12/13 07:56:29;;;;;;;19.00;12.18;;;;;;;3.35;86.04;101714.06;5065771;28;20492;-79
2021/12/13 07:59:07;;;;;;;18.05;11.07;;;;;;;3.44;85.91;101717.44;5033868;28;20485;-79
2021/12/13 08:01:51;;;;;;;17.88;10.27;;;;;;;3.73;83.95;101718.94;5033941;28;20061;-80
2021/12/13 08:04:28;;;;;;;16.35;10.57;;;;;;;3.93;82.27;101709.19;5032504;28;20049;-80
2021/12/13 08:07:00;;;;;;;16.45;10.20;;;;;;;3.97;82.66;101718.56;5033832;28;20409;-80
2021/12/13 08:09:30;;;;;;;23.30;11.18;;;;;;;4.23;82.61;101720.44;5033652;28;20504;-80
2021/12/13 08:12:03;;;;;;;20.17;11.38;;;;;;;4.27;83.31;101718.16;5033895;28;20052;-80
2021/12/13 08:14:41;;;;;;;17.35;10.93;;;;;;;4.42;83.18;101720.63;5033617;28;20052;-80
2021/12/13 08:17:18;;;;;;;21.95;12.68;;;;;;;4.83;82.50;101719.50;5033735;28;20049;-80
2021/12/13 08:20:08;;;;;;;19.63;11.80;;;;;;;4.88;81.36;101720.75;5033527;28;20034;-80
2021/12/13 08:22:43;;;;;;;17.83;11.65;;;;;;;4.95;81.29;101721.56;5033430;28;20048;-79
2021/12/13 08:25:27;;;;;;;25.75;13.57;;;;;;;5.28;80.42;101726.00;5032530;28;20084;-80
2021/12/13 08:28:03;;;;;;;18.38;12.32;;;;;;;5.54;77.05;101728.81;5033195;28;20050;-80
2021/12/13 08:30:45;;;;;;;19.05;12.68;;;;;;;5.76;75.80;101729.31;5033335;28;20053;-80
2021/12/13 08:33:41;;;;;;;18.08;12.02;;;;;;;6.08;72.12;101742.91;5032841;28;20037;-80
2021/12/13 08:36:17;;;;;;;20.05;12.70;;;;;;;5.94;73.51;101735.88;5033052;28;20056;-80
2021/12/13 08:38:47;;;;;;;21.25;12.25;;;;;;;5.66;72.88;101746.09;5033232;28;20041;-80
2021/12/13 08:41:15;;;;;;;22.17;12.63;;;;;;;5.75;72.78;101752.09;5033273;28;20481;-80
2021/12/13 08:44:08;;;;;;;21.40;12.70;;;;;;;6.00;73.13;101743.13;5033501;28;20041;-80
2021/12/13 08:46:55;;;;;;;17.55;12.25;;;;;;;6.43;71.85;101750.56;5032883;28;20053;-78
2021/12/13 08:49:29;;;;;;;19.42;11.73;;;;;;;6.74;69.90;101755.31;5025812;28;20038;-79
2021/12/13 08:52:24;;;;;;;15.70;10.63;;;;;;;6.94;70.44;101750.47;5026583;28;20042;-79
2021/12/13 08:55:06;;;;;;;20.70;11.63;;;;;;;7.20;67.82;101759.41;5032839;28;20048;-79
2021/12/13 08:58:12;;;;;;;19.35;11.60;;;;;;;6.88;67.45;101765.00;5032872;28;20045;-79
2021/12/13 09:01:04;;;;;;;23.92;13.98;;;;;;;6.45;69.62;101759.34;5032692;28;20500;-79
2021/12/13 09:03:45;;;;;;;21.63;13.43;;;;;;;6.74;70.81;101760.75;5032850;28;20054;-79
2021/12/13 09:06:19;;;;;;;26.05;15.63;;;;;;;7.17;68.34;101761.72;5032621;28;20045;-79
2021/12/13 09:09:11;;;;;;;43.15;19.70;;;;;;;7.24;69.07;101760.59;5032595;28;20484;-79
2021/12/13 09:11:39;;;;;;;40.13;21.63;;;;;;;7.37;66.59;101759.59;5032572;28;20048;-79
2021/12/13 09:14:16;;;;;;;44.08;22.67;;;;;;;7.38;65.57;101765.91;5032616;28;20437;-79
2021/12/13 09:17:12;;;;;;;42.50;21.63;;;;;;;7.14;67.11;101768.50;5032510;28;20399;-79
2021/12/13 09:19:50;;;;;;;72.55;32.47;;;;;;;7.25;65.65;101761.44;5032388;28;20484;-79
2021/12/13 09:22:24;;;;;;;47.97;22.83;;;;;;;7.15;64.15;101759.25;5031248;28;20060;-79
2021/12/13 09:24:58;;;;;;;49.00;22.73;;;;;;;7.25;65.38;101767.69;5032146;28;20499;-79
2021/12/13 09:27:34;;;;;;;41.38;22.60;;;;;;;7.49;65.71;101756.13;5032355;28;20484;-79
2021/12/13 09:30:11;;;;;;;39.65;21.70;;;;;;;7.87;63.74;101767.75;5032183;28;20523;-79
2021/12/13 09:32:44;;;;;;;33.13;18.23;;;;;;;7.93;61.58;101766.81;5032363;28;20531;-79
2021/12/13 09:35:24;;;;;;;33.23;20.20;;;;;;;8.17;62.35;101766.88;5030885;28;20080;-80
2021/12/13 09:37:56;;;;;;;31.38;18.33;;;;;;;7.92;62.07;101754.25;5032033;28;20046;-80
2021/12/13 09:40:37;;;;;;;31.90;19.52;;;;;;;7.83;62.50;101753.75;5031047;28;20041;-80
2021/12/13 09:43:07;;;;;;;30.50;18.85;;;;;;;7.59;62.43;101758.28;5031958;28;20045;-80
2021/12/13 09:45:42;;;;;;;29.48;17.80;;;;;;;7.57;63.84;101763.13;5030048;28;20048;-80
2021/12/13 09:48:33;;;;;;;27.80;18.02;;;;;;;7.08;64.10;101755.75;5031931;28;20048;-80
2021/12/13 09:51:25;;;;;;;33.28;18.27;;;;;;;6.95;63.67;101756.75;5030564;28;20053;-79
2021/12/13 09:53:57;;;;;;;32.33;18.17;;;;;;;7.12;63.14;101767.88;5031793;28;20052;-80
2021/12/13 09:56:28;;;;;;;32.78;18.85;;;;;;;7.03;65.05;101761.06;5030600;28;20052;-79
2021/12/13 09:59:05;;;;;;;33.88;19.20;;;;;;;7.20;63.71;101764.84;5031759;28;20526;-79
2021/12/13 10:01:38;;;;;;;37.72;19.38;;;;;;;7.30;62.37;101761.59;5063819;28;20427;-80
2021/12/13 10:04:12;;;;;;;33.88;18.02;;;;;;;7.16;65.63;101766.34;5031760;28;20037;-79
2021/12/13 10:06:45;;;;;;;30.38;17.85;;;;;;;7.03;65.13;101755.63;5031801;28;20050;-79
2021/12/13 10:09:20;;;;;;;29.95;18.98;;;;;;;7.29;66.38;101767.25;5031682;28;20373;-80
2021/12/13 10:12:02;;;;;;;29.77;18.25;;;;;;;7.61;65.12;101756.16;5031747;28;20045;-80
2021/12/13 10:14:37;;;;;;;32.22;18.67;;;;;;;7.51;63.93;101759.44;5031733;28;20396;-80
2021/12/13 10:17:08;;;;;;;31.20;18.00;;;;;;;7.52;63.35;101755.63;5031679;28;20056;-79
2021/12/13 10:19:44;;;;;;;32.90;18.13;;;;;;;7.64;61.99;101752.97;5031499;28;20040;-80
2021/12/13 10:22:16;;;;;;;47.15;25.80;;;;;;;7.71;62.90;101750.97;5031775;28;20057;-80
2021/12/13 10:24:56;;;;;;;38.25;20.45;;;;;;;7.75;63.28;101752.19;5031427;28;20038;-79
2021/12/13 10:27:25;;;;;;;31.25;18.40;;;;;;;7.75;62.85;101745.91;5031611;28;20050;-79
2021/12/13 10:29:58;;;;;;;44.38;22.35;;;;;;;7.71;63.92;101753.69;5031295;28;20045;-80
2021/12/13 10:32:31;;;;;;;29.08;18.33;;;;;;;7.77;61.51;101751.97;5031614;28;20391;-79
2021/12/13 10:35:08;;;;;;;29.85;18.45;;;;;;;7.75;63.33;101741.28;5031287;28;20045;-79
2021/12/13 10:37:39;;;;;;;30.73;19.77;;;;;;;7.56;63.16;101737.78;5031501;28;20045;-79
2021/12/13 10:40:21;;;;;;;29.42;18.70;;;;;;;7.35;64.89;101737.22;5063845;28;20052;-79
2021/12/13 10:42:56;;;;;;;33.78;20.27;;;;;;;7.20;64.77;101743.06;5031652;28;20048;-79
2021/12/13 10:45:29;;;;;;;33.28;22.10;;;;;;;7.26;65.77;101742.16;5031368;28;20174;-80
2021/12/13 10:48:01;;;;;;;28.48;19.30;;;;;;;7.19;66.56;101751.47;5031354;28;20057;-79
2021/12/13 10:50:35;;;;;;;27.95;17.75;;;;;;;6.97;66.75;101733.72;5014015;28;20388;-80
2021/12/13 10:53:05;;;;;;;;;;;;;;;6.93;66.40;101734.38;5022163;28;20516;-80
2021/12/13 10:55:37;;;;;;;30.40;18.67;;;;;;;6.83;68.49;101738.47;5019983;28;19929;-80
2021/12/13 10:58:05;;;;;;;51.50;38.25;;;;;;;6.88;68.14;101729.63;5031324;28;20041;-80
2021/12/13 11:00:47;;;;;;;34.95;22.48;;;;;;;6.98;67.53;101729.91;5030597;28;20046;-78
2021/12/13 11:03:22;;;;;;;32.35;20.08;;;;;;;6.99;67.93;101726.13;5030186;28;20053;-78
2021/12/13 11:05:56;;;;;;;27.92;18.75;;;;;;;7.04;69.29;101733.59;5031723;28;20042;-80
2021/12/13 11:08:25;;;;;;;30.50;19.20;;;;;;;7.20;69.14;101726.75;5030594;28;20045;-80
2021/12/13 11:11:06;;;;;;;31.30;19.70;;;;;;;7.26;66.08;101730.41;5029416;28;20046;-78
2021/12/13 11:13:37;;;;;;;27.92;18.40;;;;;;;7.24;66.28;101727.09;5032162;28;20094;-78
2021/12/13 11:16:24;;;;;;;30.38;19.45;;;;;;;7.35;66.39;101729.06;5028233;28;20042;-80
2021/12/13 11:18:56;;;;;;;31.63;19.20;;;;;;;7.43;66.67;101719.72;5028122;28;20045;-80
2021/12/13 11:21:29;;;;;;;28.58;18.60;;;;;;;7.04;66.20;101713.75;5024427;28;20508;-80
2021/12/13 11:24:06;;;;;;;30.00;19.42;;;;;;;7.21;67.17;101717.50;5027435;28;20057;-80
2021/12/13 11:26:39;;;;;;;26.85;18.65;;;;;;;7.42;67.09;101731.69;5023289;28;20523;-80
2021/12/13 11:29:09;;;;;;;31.55;19.77;;;;;;;7.32;66.21;101717.78;5030232;28;20041;-80
2021/12/13 11:31:52;;;;;;;30.17;20.27;;;;;;;7.44;66.94;101715.97;5023136;28;20045;-80
2021/12/13 11:34:51;;;;;;;31.58;19.45;;;;;;;7.46;66.14;101708.38;5023927;28;20499;-80
2021/12/13 11:37:54;;;;;;;29.92;19.23;;;;;;;7.61;65.11;101709.84;5021739;28;20045;-80
2021/12/13 11:40:45;;;;;;;32.72;21.35;;;;;;;7.83;65.36;101718.31;5019752;28;20042;-79
2021/12/13 11:43:50;;;;;;;29.00;19.98;;;;;;;8.03;63.54;101712.53;5028989;28;20045;-80
2021/12/13 11:46:36;;;;;;;;;;;;;;;8.16;62.91;101706.03;5030701;28;20058;-80
2021/12/13 11:49:24;;;;;;;36.28;22.88;;;;;;;8.34;62.99;101707.00;5022042;28;19921;-79
2021/12/13 11:52:09;;;;;;;29.17;18.30;;;;;;;8.38;59.77;101702.75;5027635;28;20052;-79
2021/12/13 11:55:11;;;;;;;33.90;18.52;;;;;;;8.30;60.08;101693.00;5032393;28;20392;-79
2021/12/13 11:58:16;;;;;;;28.75;18.33;;;;;;;8.10;58.34;101689.78;5032743;28;20045;-80
2021/12/13 12:01:00;;;;;;;;;;;;;;;7.88;61.23;101691.19;5023168;28;20048;-79
2021/12/13 12:04:05;;;;;;;29.00;17.52;;;;;;;8.04;57.97;101686.97;5016157;28;19921;-80
2021/12/13 12:07:09;;;;;;;29.75;17.55;;;;;;;7.98;57.46;101676.16;5022116;28;20078;-79
2021/12/13 12:09:58;;;;;;;24.17;15.40;;;;;;;7.99;55.15;101673.19;5029263;28;20051;-80
2021/12/13 12:12:44;;;;;;;34.78;19.48;;;;;;;7.92;58.77;101677.94;5018688;28;20049;-79
2021/12/13 12:15:14;;;;;;;28.08;17.17;;;;;;;7.87;57.46;101675.09;5013228;28;20054;-79